الصفحة الرئيسية
METAR-TAF:

METAR-TAF

مطار :

مطار بتروبافل

بتروبافل, كازاخستان

دائرة عرض: 54-46-28N, خط طول: 069-11-06E, ارتفاع: 139 متر

مراقبة الطقس الحالي

تاريخ ووقت الإصدار 24 دقيقة قبل الساعة 11:00UTC
ريح 14 عقدة من الجنوب الغربي
درجة الحرارة -3°درجة مئوية
الرطوبة 86%
ضغط 991 hPa
الرؤية: 7000 متر
غيوم مفككة على ارتفاع 2400 قدم
ملبد بالغيوم على ارتفاع 3000 قدم, مزنة ركامية.
زخات ثلجية خفيفة

METAR: UACP 221100Z 23007MPS 7000 -SHSN BKN024 OVC030CB M03/M05 Q0991 R23/1/0058 NOSIG RMK QFE731/0975

زمن: 17:24 (11:24 UTC)

توقعات

تاريخ ووقت الإصدار 3ساعات و 25 دقيقة قبل الساعة 07:59UTC
التوقعات صالحة من22 الساعة 09 UTC إلى 22 الساعة 18 UTC
ريح 14 عقدة من الجنوب/الجنوب الغربي
الرؤية: 4000 متر
غيوم مفككة على ارتفاع 1000 قدم, مزنة ركامية.
زخات ثلجية خفيفة
مؤقت
من 22 الساعة 09 UTC إلى 22 الساعة 15 UTC
ريح 19 عقدة من الغرب/الجنوب الغربي
الرؤية: 2000 متر
غيوم مفككة على ارتفاع 600 قدم
غيوم مفككة على ارتفاع 1000 قدم, مزنة ركامية.
زخات ثلجية

TAF: UACP 220759Z 2209/2218 20007MPS 4000 -SHSN BKN010CB TEMPO 2209/2215 25010MPS 2000 SHSN BKN006 BKN010CB

أرصاد الطقس والتوقعات من أكثر من 4000 مطار (تقارير الطقس للمطار METAR والتنبؤ بالطقس بالمطارTAF).

المحطات المتاحة هي النقط الصفراء والحمراء على الخريطة.

حرك المؤشر فوق النقطة لمعرفة اسم المحطة.

ثم انقر لمعرفة أرصاد وتوقعات الطقس.

لتغيير الخارطة: اضغط على الأزرار الخضراء مع رمز الصليب الأسود للتكبير. على الزر الأخضر مع شرطة للتصغير، أو على الأسهم الخضراء للخرائط المجاورة.


METAR-TAF: